createdAt,value
2023-02-08T00:00:15.572Z,14.93
2023-02-08T00:02:43.154Z,12.83
2023-02-08T00:05:10.652Z,14.83
2023-02-08T00:07:38.207Z,12.13
2023-02-08T00:10:05.902Z,11.70
2023-02-08T00:12:34.411Z,11.47
2023-02-08T00:15:01.923Z,13.47
2023-02-08T00:17:29.495Z,14.33
2023-02-08T00:19:57.089Z,11.03
2023-02-08T00:22:24.664Z,13.43
2023-02-08T00:24:52.128Z,11.47
2023-02-08T00:27:19.684Z,13.07
2023-02-08T00:29:47.213Z,14.07
2023-02-08T00:32:15.165Z,12.73
2023-02-08T00:34:42.638Z,14.50
2023-02-08T00:37:10.174Z,11.80
2023-02-08T00:39:40.782Z,14.50
2023-02-08T00:42:08.246Z,12.03
2023-02-08T00:44:35.770Z,15.60
2023-02-08T00:47:03.322Z,14.27
2023-02-08T00:49:30.821Z,13.00
2023-02-08T00:51:58.341Z,11.30
2023-02-08T00:54:25.892Z,14.00
2023-02-08T00:56:53.388Z,10.83
2023-02-08T00:59:20.855Z,12.87
2023-02-08T01:01:48.395Z,11.87
2023-02-08T01:04:15.915Z,15.60
2023-02-08T01:06:43.488Z,12.80
2023-02-08T01:09:10.940Z,13.83
2023-02-08T01:11:38.658Z,13.30
2023-02-08T01:14:06.164Z,11.03
2023-02-08T01:16:34.624Z,12.63
2023-02-08T01:19:02.912Z,14.23
2023-02-08T01:21:32.025Z,11.67
2023-02-08T01:23:59.928Z,12.37
2023-02-08T01:26:27.930Z,15.33
2023-02-08T01:28:56.088Z,14.43
2023-02-08T01:31:25.667Z,14.73
2023-02-08T01:33:53.217Z,12.97
2023-02-08T01:36:20.764Z,13.47
2023-02-08T01:38:48.716Z,11.67
2023-02-08T01:41:21.163Z,12.27
2023-02-08T01:44:06.919Z,11.07
2023-02-08T01:46:35.653Z,14.10
2023-02-08T01:49:06.360Z,15.90
2023-02-08T01:51:37.266Z,14.73
2023-02-08T01:54:05.972Z,13.67
2023-02-08T01:56:34.865Z,13.43
2023-02-08T01:59:03.608Z,10.87
2023-02-08T02:01:31.936Z,11.07
2023-02-08T02:04:03.692Z,12.80
2023-02-08T02:06:34.029Z,11.90
2023-02-08T02:09:10.480Z,16.17
2023-02-08T02:11:38.167Z,15.40
2023-02-08T02:14:06.003Z,15.33
2023-02-08T02:16:33.558Z,13.10
2023-02-08T02:19:01.156Z,12.40
2023-02-08T02:21:28.647Z,13.40
2023-02-08T02:24:15.121Z,13.97
2023-02-08T02:26:51.586Z,12.37
2023-02-08T02:29:26.083Z,15.67
2023-02-08T02:32:03.545Z,13.07
2023-02-08T02:34:50.035Z,12.50
2023-02-08T02:37:37.212Z,15.03
2023-02-08T02:40:07.613Z,17.87
2023-02-08T02:42:53.772Z,11.40
2023-02-08T02:45:27.352Z,12.17
2023-02-08T02:47:54.833Z,13.27
2023-02-08T02:50:31.412Z,11.63
2023-02-08T02:52:58.896Z,12.73
2023-02-08T02:55:27.158Z,12.90
2023-02-08T02:57:55.859Z,13.47
2023-02-08T03:00:25.253Z,13.00
2023-02-08T03:02:53.259Z,12.63
2023-02-08T03:05:20.767Z,16.27
2023-02-08T03:08:06.479Z,12.70
2023-02-08T03:10:34.057Z,13.13
2023-02-08T03:13:08.295Z,15.10
2023-02-08T03:15:41.962Z,14.57
2023-02-08T03:18:18.398Z,13.10
2023-02-08T03:20:52.151Z,13.90
2023-02-08T03:23:28.959Z,14.13
2023-02-08T03:25:59.566Z,11.67
2023-02-08T03:28:29.464Z,14.60
2023-02-08T03:31:23.386Z,14.93
2023-02-08T03:34:00.282Z,15.00
2023-02-08T03:36:32.317Z,13.63
2023-02-08T03:39:02.016Z,14.57
2023-02-08T03:41:32.750Z,16.63
2023-02-08T03:44:02.612Z,17.43
2023-02-08T03:46:33.024Z,13.33
2023-02-08T03:49:03.404Z,13.43
2023-02-08T03:51:31.668Z,16.50
2023-02-08T03:54:01.636Z,15.33
2023-02-08T03:56:39.250Z,16.93
2023-02-08T03:59:10.000Z,14.80
2023-02-08T04:01:42.012Z,13.33
2023-02-08T04:04:10.459Z,15.03
2023-02-08T04:06:37.910Z,13.63
2023-02-08T04:09:05.446Z,14.37
2023-02-08T04:11:32.946Z,17.27
2023-02-08T04:14:00.560Z,16.53
2023-02-08T04:16:28.079Z,17.43
2023-02-08T04:18:55.655Z,15.47
2023-02-08T04:21:23.132Z,17.40
2023-02-08T04:23:50.655Z,25.83
2023-02-08T04:26:18.124Z,15.30
2023-02-08T04:28:45.772Z,12.07
2023-02-08T04:31:13.479Z,13.33
2023-02-08T04:33:43.666Z,15.83
2023-02-08T04:36:11.198Z,13.73
2023-02-08T04:38:38.727Z,13.17
2023-02-08T04:41:06.346Z,13.57
2023-02-08T04:43:33.862Z,15.10
2023-02-08T04:46:01.461Z,14.80
2023-02-08T04:48:28.989Z,15.30
2023-02-08T04:50:57.229Z,16.90
2023-02-08T04:53:25.786Z,13.87
2023-02-08T04:55:53.305Z,12.50
2023-02-08T04:58:20.846Z,16.20
2023-02-08T05:00:48.367Z,14.70
2023-02-08T05:03:16.289Z,14.90
2023-02-08T05:05:43.790Z,15.40
2023-02-08T05:08:11.317Z,16.67
2023-02-08T05:10:39.027Z,14.27
2023-02-08T05:13:06.801Z,11.60
2023-02-08T05:15:35.241Z,14.53
2023-02-08T05:18:02.729Z,15.07
2023-02-08T05:20:30.195Z,12.83
2023-02-08T05:22:57.738Z,12.83
2023-02-08T05:25:25.228Z,15.23
2023-02-08T05:27:52.869Z,15.07
2023-02-08T05:30:20.508Z,17.77
2023-02-08T05:32:48.023Z,15.20
2023-02-08T05:35:15.577Z,12.27
2023-02-08T05:37:43.157Z,12.17
2023-02-08T05:40:11.039Z,14.80
2023-02-08T05:42:38.602Z,15.20
2023-02-08T05:45:06.433Z,15.17
2023-02-08T05:47:33.941Z,13.50
2023-02-08T05:50:01.439Z,13.53
2023-02-08T05:52:29.040Z,12.60
2023-02-08T05:54:56.498Z,17.60
2023-02-08T05:57:25.247Z,14.33
2023-02-08T05:59:52.704Z,16.73
2023-02-08T06:02:20.256Z,12.60
2023-02-08T06:04:47.709Z,14.53
2023-02-08T06:07:15.512Z,14.77
2023-02-08T06:09:43.097Z,12.50
2023-02-08T06:12:10.689Z,12.00
2023-02-08T06:14:38.282Z,17.57
2023-02-08T06:17:05.842Z,15.93
2023-02-08T06:19:33.358Z,15.03
2023-02-08T06:22:00.899Z,18.00
2023-02-08T06:24:28.401Z,16.43
2023-02-08T06:26:55.964Z,14.13
2023-02-08T06:29:23.456Z,17.07
2023-02-08T06:31:51.078Z,15.30
2023-02-08T06:34:18.621Z,16.23
2023-02-08T06:36:46.105Z,15.20
2023-02-08T06:39:13.624Z,15.47
2023-02-08T06:41:41.178Z,14.50
2023-02-08T06:44:08.669Z,14.43
2023-02-08T06:46:36.244Z,16.53
2023-02-08T06:49:03.759Z,16.97
2023-02-08T06:51:31.338Z,15.37
2023-02-08T06:53:58.913Z,14.23
2023-02-08T06:56:26.526Z,14.10
2023-02-08T06:58:54.063Z,14.43
2023-02-08T07:01:21.649Z,13.43
2023-02-08T07:03:49.189Z,19.53
2023-02-08T07:06:18.215Z,18.07
2023-02-08T07:08:46.094Z,17.17
2023-02-08T07:11:15.352Z,19.83
2023-02-08T07:13:42.881Z,14.50
2023-02-08T07:16:10.674Z,13.70
2023-02-08T07:18:38.199Z,14.90
2023-02-08T07:21:05.921Z,15.40
2023-02-08T07:23:33.539Z,16.33
2023-02-08T07:26:05.893Z,15.67
2023-02-08T07:28:33.608Z,15.33
2023-02-08T07:31:01.136Z,15.27
2023-02-08T07:33:28.707Z,15.27
2023-02-08T07:35:56.203Z,14.77
2023-02-08T07:38:23.911Z,13.73
2023-02-08T07:40:51.400Z,11.67
2023-02-08T07:43:18.913Z,16.73
2023-02-08T07:45:46.402Z,15.27
2023-02-08T07:48:14.129Z,15.97
2023-02-08T07:50:41.818Z,15.90
2023-02-08T07:53:09.436Z,15.57
2023-02-08T07:55:36.900Z,17.03
2023-02-08T07:58:04.453Z,17.27
2023-02-08T08:00:31.931Z,18.47
2023-02-08T08:02:59.475Z,19.87
2023-02-08T08:05:26.899Z,15.93
2023-02-08T08:07:54.431Z,13.30
2023-02-08T08:10:21.913Z,18.43
2023-02-08T08:12:49.500Z,15.57
2023-02-08T08:15:17.057Z,18.80
2023-02-08T08:17:44.632Z,17.37
2023-02-08T08:20:12.166Z,14.70
2023-02-08T08:22:39.675Z,14.73
2023-02-08T08:25:07.193Z,16.80
2023-02-08T08:27:34.860Z,17.33
2023-02-08T08:30:02.404Z,17.90
2023-02-08T08:32:29.911Z,19.77
2023-02-08T08:34:57.521Z,15.37
2023-02-08T08:37:25.145Z,13.13
2023-02-08T08:39:52.641Z,17.40
2023-02-08T08:42:20.261Z,18.43
2023-02-08T08:44:48.027Z,25.13
2023-02-08T08:47:15.652Z,22.13
2023-02-08T08:49:43.136Z,23.63
2023-02-08T08:52:11.550Z,18.37
2023-02-08T08:54:39.410Z,19.70
2023-02-08T08:57:07.002Z,20.60
2023-02-08T08:59:34.757Z,21.13
2023-02-08T09:02:02.398Z,19.97
2023-02-08T09:04:29.922Z,15.47
2023-02-08T09:06:57.496Z,15.67
2023-02-08T09:09:24.976Z,13.40
2023-02-08T09:11:52.586Z,14.90
2023-02-08T09:14:20.108Z,13.67
2023-02-08T09:16:48.137Z,14.27
2023-02-08T09:19:16.472Z,12.33
2023-02-08T09:21:44.102Z,14.97
2023-02-08T09:24:12.100Z,12.70
2023-02-08T09:26:39.653Z,11.37
2023-02-08T09:29:07.420Z,11.63
2023-02-08T09:31:37.364Z,19.10
2023-02-08T09:34:05.510Z,13.87
2023-02-08T09:36:34.045Z,16.03
2023-02-08T09:39:03.161Z,14.67
2023-02-08T09:41:49.508Z,13.50
2023-02-08T09:44:37.480Z,17.13
2023-02-08T09:47:15.408Z,10.47
2023-02-08T09:50:03.227Z,10.83
2023-02-08T09:52:35.978Z,15.77
2023-02-08T09:55:10.005Z,13.50
2023-02-08T09:57:38.626Z,12.17
2023-02-08T10:00:08.516Z,9.90
2023-02-08T10:02:36.483Z,10.77
2023-02-08T10:05:06.356Z,14.93
2023-02-08T10:07:35.193Z,10.07
2023-02-08T10:10:03.958Z,10.70
2023-02-08T10:12:35.420Z,12.67
2023-02-08T10:15:05.718Z,9.33
2023-02-08T10:17:45.530Z,9.20
2023-02-08T10:20:24.241Z,9.67
2023-02-08T10:23:08.140Z,8.90
2023-02-08T10:25:35.718Z,10.37
2023-02-08T10:28:16.394Z,11.13
2023-02-08T10:30:57.949Z,11.23
2023-02-08T10:33:44.395Z,14.17
2023-02-08T10:36:17.411Z,10.73
2023-02-08T10:38:47.107Z,9.20
2023-02-08T10:41:17.756Z,10.53
2023-02-08T10:43:48.212Z,10.07
2023-02-08T10:46:33.085Z,11.73
2023-02-08T10:49:10.984Z,13.23
2023-02-08T10:51:38.661Z,11.83
2023-02-08T10:54:06.301Z,10.80
2023-02-08T10:56:37.216Z,11.37
2023-02-08T10:59:24.942Z,10.73
2023-02-08T11:01:53.716Z,13.67
2023-02-08T11:04:21.370Z,11.13
2023-02-08T11:06:52.346Z,9.67
2023-02-08T11:09:30.496Z,10.73
2023-02-08T11:12:02.553Z,12.73
2023-02-08T11:14:45.501Z,7.63
2023-02-08T11:17:46.173Z,13.30
2023-02-08T11:20:22.921Z,8.87
2023-02-08T11:22:52.063Z,10.70
2023-02-08T11:25:34.955Z,7.03
2023-02-08T11:28:04.159Z,7.50
2023-02-08T11:30:31.749Z,8.13
2023-02-08T11:33:19.505Z,10.93
2023-02-08T11:35:54.301Z,8.70
2023-02-08T11:38:21.890Z,7.60
2023-02-08T11:40:49.479Z,11.90
2023-02-08T11:43:25.636Z,6.70
2023-02-08T11:45:54.290Z,10.70
2023-02-08T11:48:43.000Z,8.77
2023-02-08T11:51:12.788Z,6.87
2023-02-08T11:53:41.131Z,8.83
2023-02-08T11:56:19.444Z,6.83
2023-02-08T11:59:00.676Z,7.27
2023-02-08T12:01:35.795Z,7.13
2023-02-08T12:04:05.012Z,8.13
2023-02-08T12:06:35.361Z,6.20
2023-02-08T12:09:21.423Z,7.10
2023-02-08T12:12:12.156Z,5.93
2023-02-08T12:14:56.609Z,7.27
2023-02-08T12:17:39.504Z,7.23
2023-02-08T12:20:07.149Z,6.10
2023-02-08T12:22:38.052Z,9.93
2023-02-08T12:25:24.368Z,6.53
2023-02-08T12:28:04.277Z,8.07
2023-02-08T12:30:37.699Z,5.00
2023-02-08T12:33:17.178Z,5.23
2023-02-08T12:36:01.820Z,7.13
2023-02-08T12:38:39.047Z,5.70
2023-02-08T12:41:09.400Z,5.53
2023-02-08T12:43:51.251Z,5.70
2023-02-08T12:46:46.058Z,7.13
2023-02-08T12:49:28.571Z,7.43
2023-02-08T12:52:15.056Z,4.90
2023-02-08T12:54:55.084Z,6.17
2023-02-08T12:57:23.907Z,7.50
2023-02-08T12:59:57.403Z,6.43
2023-02-08T13:02:34.979Z,4.33
2023-02-08T13:05:04.955Z,5.30
2023-02-08T13:07:36.092Z,4.70
2023-02-08T13:10:26.999Z,8.70
2023-02-08T13:12:56.011Z,5.47
2023-02-08T13:15:30.568Z,8.70
2023-02-08T13:18:00.768Z,9.03
2023-02-08T13:20:34.431Z,7.13
2023-02-08T13:23:03.939Z,6.37
2023-02-08T13:25:33.438Z,6.03
2023-02-08T13:28:02.213Z,6.10
2023-02-08T13:30:30.341Z,7.33
2023-02-08T13:32:58.240Z,10.83
2023-02-08T13:35:29.176Z,4.90
2023-02-08T13:38:02.277Z,4.90
2023-02-08T13:40:32.347Z,3.67
2023-02-08T13:43:01.802Z,4.80
2023-02-08T13:45:36.659Z,4.80
2023-02-08T13:48:05.957Z,4.67
2023-02-08T13:50:33.449Z,5.03
2023-02-08T13:53:01.812Z,7.20
2023-02-08T13:55:29.333Z,3.87
2023-02-08T13:58:01.432Z,4.20
2023-02-08T14:00:30.169Z,3.17
2023-02-08T14:03:03.663Z,4.00
2023-02-08T14:05:45.809Z,4.00
2023-02-08T14:08:22.724Z,5.27
2023-02-08T14:11:14.996Z,3.87
2023-02-08T14:13:45.433Z,3.70
2023-02-08T14:16:29.724Z,4.23
2023-02-08T14:18:58.416Z,4.03
2023-02-08T14:21:38.454Z,4.40
2023-02-08T14:24:08.940Z,5.40
2023-02-08T14:26:38.297Z,7.47
2023-02-08T14:29:08.386Z,5.60
2023-02-08T14:31:37.919Z,4.50
2023-02-08T14:34:05.521Z,5.13
2023-02-08T14:36:35.006Z,5.07
2023-02-08T14:39:21.429Z,5.17
2023-02-08T14:41:55.391Z,6.33
2023-02-08T14:44:38.285Z,7.50
2023-02-08T14:47:12.003Z,5.03
2023-02-08T14:49:41.899Z,3.93
2023-02-08T14:52:27.837Z,3.37
2023-02-08T14:55:08.165Z,4.23
2023-02-08T14:57:36.492Z,3.87
2023-02-08T15:00:07.820Z,4.23
2023-02-08T15:02:46.486Z,4.23
2023-02-08T15:05:42.971Z,4.73
2023-02-08T15:08:10.795Z,4.20
2023-02-08T15:10:42.039Z,4.30
2023-02-08T15:13:17.847Z,7.47
2023-02-08T15:15:45.470Z,4.27
2023-02-08T15:18:20.518Z,4.43
2023-02-08T15:20:56.481Z,4.67
2023-02-08T15:23:24.583Z,5.63
2023-02-08T15:26:02.499Z,7.13
2023-02-08T15:28:39.641Z,9.47
2023-02-08T15:31:09.323Z,4.93
2023-02-08T15:33:40.828Z,4.97
2023-02-08T15:36:09.756Z,5.13
2023-02-08T15:38:38.458Z,6.07
2023-02-08T15:41:07.496Z,3.93
2023-02-08T15:43:35.805Z,3.83
2023-02-08T15:46:04.987Z,3.43
2023-02-08T15:48:33.290Z,4.97
2023-02-08T15:51:01.564Z,3.13
2023-02-08T15:53:29.579Z,3.43
2023-02-08T15:55:59.544Z,4.77
2023-02-08T15:58:32.153Z,6.13
2023-02-08T16:01:04.702Z,4.03
2023-02-08T16:03:32.791Z,5.43
2023-02-08T16:06:02.803Z,4.97
2023-02-08T16:08:31.625Z,4.43
2023-02-08T16:11:02.157Z,7.33
2023-02-08T16:13:31.796Z,4.90
2023-02-08T16:16:15.251Z,3.70
2023-02-08T16:18:42.827Z,4.90
2023-02-08T16:21:24.869Z,5.77
2023-02-08T16:23:56.975Z,4.63
2023-02-08T16:26:28.214Z,6.37
2023-02-08T16:29:01.232Z,5.33
2023-02-08T16:31:30.389Z,10.60
2023-02-08T16:33:58.988Z,7.73
2023-02-08T16:36:29.015Z,5.33
2023-02-08T16:39:14.695Z,10.27
2023-02-08T16:41:58.882Z,8.67
2023-02-08T16:44:36.159Z,8.80
2023-02-08T16:47:23.845Z,7.27
2023-02-08T16:49:51.366Z,6.33
2023-02-08T16:52:18.925Z,6.50
2023-02-08T16:54:48.274Z,11.60
2023-02-08T16:57:15.775Z,8.43
2023-02-08T16:59:43.430Z,5.77
2023-02-08T17:02:14.144Z,18.03
2023-02-08T17:04:41.777Z,10.23
2023-02-08T17:07:17.993Z,6.27
2023-02-08T17:09:45.520Z,4.67
2023-02-08T17:12:21.761Z,5.43
2023-02-08T17:14:50.394Z,5.93
2023-02-08T17:17:17.940Z,4.23
2023-02-08T17:19:45.456Z,8.50
2023-02-08T17:22:13.164Z,6.93
2023-02-08T17:24:40.781Z,8.00
2023-02-08T17:27:12.058Z,5.00
2023-02-08T17:29:39.648Z,9.13
2023-02-08T17:32:07.139Z,7.50
2023-02-08T17:34:34.752Z,4.43
2023-02-08T17:37:02.207Z,11.50
2023-02-08T17:39:29.778Z,8.20
2023-02-08T17:41:57.221Z,6.53
2023-02-08T17:44:24.753Z,7.77
2023-02-08T17:46:52.253Z,8.37
2023-02-08T17:49:19.742Z,6.00
2023-02-08T17:51:47.259Z,8.37
2023-02-08T17:54:14.794Z,7.13
2023-02-08T17:56:42.265Z,7.43
2023-02-08T17:59:09.800Z,6.63
2023-02-08T18:01:37.468Z,7.60
2023-02-08T18:04:05.248Z,5.83
2023-02-08T18:06:32.729Z,8.10
2023-02-08T18:09:00.298Z,6.93
2023-02-08T18:11:27.825Z,9.00
2023-02-08T18:13:55.360Z,5.50
2023-02-08T18:16:25.810Z,12.60
2023-02-08T18:18:57.083Z,6.30
2023-02-08T18:21:25.084Z,7.63
2023-02-08T18:23:52.632Z,9.37
2023-02-08T18:26:21.346Z,7.57
2023-02-08T18:28:49.245Z,8.90
2023-02-08T18:31:17.681Z,5.80
2023-02-08T18:33:45.265Z,5.23
2023-02-08T18:36:13.557Z,7.77
2023-02-08T18:38:41.966Z,9.17
2023-02-08T18:41:10.674Z,7.70
2023-02-08T18:43:39.058Z,5.97
2023-02-08T18:46:08.071Z,5.83
2023-02-08T18:48:35.934Z,6.07
2023-02-08T18:51:03.771Z,7.60
2023-02-08T18:53:32.756Z,8.00
2023-02-08T18:56:01.075Z,9.27
2023-02-08T18:58:28.905Z,7.50
2023-02-08T19:00:56.569Z,6.90
2023-02-08T19:03:24.048Z,5.53
2023-02-08T19:05:51.574Z,7.53
2023-02-08T19:08:19.080Z,10.83
2023-02-08T19:10:46.638Z,10.40
2023-02-08T19:13:14.188Z,6.73
2023-02-08T19:15:41.952Z,6.77
2023-02-08T19:18:09.697Z,7.97
2023-02-08T19:20:37.829Z,7.63
2023-02-08T19:23:06.008Z,8.07
2023-02-08T19:25:36.972Z,8.40
2023-02-08T19:28:04.973Z,8.93
2023-02-08T19:30:32.653Z,8.37
2023-02-08T19:33:00.310Z,7.53
2023-02-08T19:35:27.809Z,9.80
2023-02-08T19:37:55.390Z,10.77
2023-02-08T19:40:22.936Z,7.67
2023-02-08T19:42:50.496Z,8.73
2023-02-08T19:45:18.019Z,8.30
2023-02-08T19:47:51.524Z,9.17
2023-02-08T19:50:19.494Z,7.93
2023-02-08T19:52:47.039Z,10.70
2023-02-08T19:55:14.626Z,11.73
2023-02-08T19:57:42.134Z,9.87
2023-02-08T20:00:22.550Z,7.83
2023-02-08T20:02:50.812Z,8.40
2023-02-08T20:05:18.378Z,8.77
2023-02-08T20:07:45.955Z,7.57
2023-02-08T20:10:13.428Z,9.87
2023-02-08T20:12:40.981Z,8.73
2023-02-08T20:15:08.720Z,8.23
2023-02-08T20:17:36.293Z,11.47
2023-02-08T20:20:03.983Z,10.13
2023-02-08T20:22:31.552Z,10.67
2023-02-08T20:24:59.075Z,8.67
2023-02-08T20:27:29.656Z,7.83
2023-02-08T20:29:58.383Z,13.50
2023-02-08T20:32:25.901Z,9.70
2023-02-08T20:34:59.528Z,8.90
2023-02-08T20:37:27.615Z,12.17
2023-02-08T20:39:55.176Z,10.13
2023-02-08T20:42:22.895Z,10.20
2023-02-08T20:44:50.406Z,7.23
2023-02-08T20:47:17.983Z,9.83
2023-02-08T20:49:45.980Z,10.17
2023-02-08T20:52:13.485Z,11.93
2023-02-08T20:54:41.276Z,9.80
2023-02-08T20:57:09.644Z,11.47
2023-02-08T20:59:40.894Z,9.37
2023-02-08T21:02:09.220Z,11.27
2023-02-08T21:04:36.852Z,9.03
2023-02-08T21:07:04.423Z,10.77
2023-02-08T21:09:31.896Z,9.07
2023-02-08T21:11:59.567Z,14.93
2023-02-08T21:14:27.229Z,13.97
2023-02-08T21:16:56.033Z,11.90
2023-02-08T21:19:23.729Z,10.47
2023-02-08T21:21:54.943Z,10.70
2023-02-08T21:24:22.559Z,11.17
2023-02-08T21:26:51.840Z,14.03
2023-02-08T21:29:19.560Z,12.40
2023-02-08T21:31:47.126Z,11.40
2023-02-08T21:34:14.750Z,10.33
2023-02-08T21:36:42.252Z,11.70
2023-02-08T21:39:09.934Z,12.33
2023-02-08T21:41:37.499Z,9.83
2023-02-08T21:44:05.876Z,11.63
2023-02-08T21:46:33.408Z,13.13
2023-02-08T21:49:01.300Z,13.10
2023-02-08T21:51:28.851Z,10.47
2023-02-08T21:53:56.437Z,11.43
2023-02-08T21:56:23.945Z,11.60
2023-02-08T21:58:51.547Z,14.07
2023-02-08T22:01:19.161Z,12.53
2023-02-08T22:03:46.749Z,13.63
2023-02-08T22:06:14.340Z,10.40
2023-02-08T22:08:41.972Z,10.90
2023-02-08T22:11:09.540Z,11.60
2023-02-08T22:13:37.139Z,10.23
2023-02-08T22:16:08.151Z,12.10
2023-02-08T22:18:35.768Z,14.27
2023-02-08T22:21:06.246Z,11.53
2023-02-08T22:23:33.920Z,10.60
2023-02-08T22:26:01.479Z,12.60
2023-02-08T22:28:29.045Z,12.60
2023-02-08T22:30:56.736Z,10.50
2023-02-08T22:33:24.357Z,14.80
2023-02-08T22:35:51.883Z,11.87
2023-02-08T22:38:19.470Z,11.60
2023-02-08T22:40:47.405Z,10.73
2023-02-08T22:43:15.228Z,13.20
2023-02-08T22:45:42.898Z,15.37
2023-02-08T22:48:10.804Z,11.67
2023-02-08T22:50:39.001Z,11.40
2023-02-08T22:53:06.583Z,13.17
2023-02-08T22:55:34.130Z,11.13
2023-02-08T22:58:01.707Z,11.63
2023-02-08T23:00:29.248Z,12.13
2023-02-08T23:02:56.965Z,14.67
2023-02-08T23:05:24.534Z,11.13
2023-02-08T23:07:52.108Z,12.13
2023-02-08T23:10:19.630Z,14.53
2023-02-08T23:12:47.189Z,13.27
2023-02-08T23:15:14.709Z,14.40
2023-02-08T23:17:42.341Z,14.83
2023-02-08T23:20:10.388Z,11.80
2023-02-08T23:22:38.115Z,16.20
2023-02-08T23:25:05.882Z,11.70
2023-02-08T23:27:33.495Z,12.87
2023-02-08T23:30:01.035Z,12.77
2023-02-08T23:32:28.734Z,13.17
2023-02-08T23:34:56.266Z,15.60
2023-02-08T23:37:23.900Z,15.50
2023-02-08T23:39:51.388Z,14.67
2023-02-08T23:42:18.953Z,13.30
2023-02-08T23:44:46.477Z,12.13
2023-02-08T23:47:14.078Z,13.70
2023-02-08T23:49:41.600Z,13.20
2023-02-08T23:52:09.226Z,13.03
2023-02-08T23:54:37.104Z,10.43
2023-02-08T23:57:04.892Z,13.50
2023-02-08T23:59:32.637Z,13.10
